Main page
METAR-TAF:

METAR-TAF

Airports :

Norman Manley International Airport

Kingston, Jamaica

latitude: 17-56N, longitude: 076-47W, elevation: 3 m

Current weather observation

The report was made 23 minutes ago, at 04:00 UTC
Wind 4 kt from the Northwest
Temperature 27°C
Humidity 74%
Pressure 1013 hPa
Visibility 10 km or more
Few clouds at a height of 2200 ft, Cumulonimbus.
Scattered clouds at a height of 3800 ft
thunderstorm in vicinity

METAR: MKJP 170400Z 32004KT 9999 VCTS FEW022CB SCT038 27/22 Q1013

Time: 23:23 (04:23 UTC)

Forecast

The report was made 5 hours and 8 minutes ago, at 23:15 UTC
Forecast valid from 17 at 00 UTC to 17 at 24 UTC
Wind 20 kt from the Southeast
Visibility 10 km or more
Few clouds at a height of 2200 ft, Cumulonimbus.
Becoming
from 17 at 02 UTC to 17 at 04 UTC
Wind 5 kt from the North
Becoming
from 17 at 14 UTC to 17 at 16 UTC
Wind 20 kt from the Southeast

TAF: MKJP 162315Z 1700/1724 14020KT 9999 FEW022CB BECMG 1702/1704 35005KT BECMG 1714/1716 14020KT

Weather observations and forecasts of more than 4000 airports (METAR and TAF reports).

The available stations are represented by yellow and red dots on the map.

Hover mouse over dot to see the name of the station.

Then click to see weather observations and forecasts.

To change the map : click on the green buttons with a black cross to zoom in, on the green button with a dash to zoom out, or on the green arrows for adjacent maps.


METAR-TAF: